sensor_id;sensor_type;location;lat;lon;timestamp;P1;durP1;ratioP1;P2;durP2;ratioP2
9942;SDS011;5010;45.080;7.634;2023-02-26T00:02:24;14.57;;;10.65;;
9942;SDS011;5010;45.080;7.634;2023-02-26T00:04:52;12.30;;;9.07;;
9942;SDS011;5010;45.080;7.634;2023-02-26T00:07:19;10.98;;;9.10;;
9942;SDS011;5010;45.080;7.634;2023-02-26T00:09:46;13.20;;;10.82;;
9942;SDS011;5010;45.080;7.634;2023-02-26T00:12:13;14.93;;;10.90;;
9942;SDS011;5010;45.080;7.634;2023-02-26T00:14:41;14.43;;;12.20;;
9942;SDS011;5010;45.080;7.634;2023-02-26T00:17:24;10.77;;;10.20;;
9942;SDS011;5010;45.080;7.634;2023-02-26T00:20:01;12.80;;;9.25;;
9942;SDS011;5010;45.080;7.634;2023-02-26T00:22:29;13.70;;;9.73;;
9942;SDS011;5010;45.080;7.634;2023-02-26T00:24:57;15.90;;;10.15;;
9942;SDS011;5010;45.080;7.634;2023-02-26T00:27:24;13.48;;;11.85;;
9942;SDS011;5010;45.080;7.634;2023-02-26T00:29:51;13.32;;;10.63;;
9942;SDS011;5010;45.080;7.634;2023-02-26T00:32:18;11.75;;;10.55;;
9942;SDS011;5010;45.080;7.634;2023-02-26T00:34:46;11.57;;;9.35;;
9942;SDS011;5010;45.080;7.634;2023-02-26T00:37:21;12.00;;;10.45;;
9942;SDS011;5010;45.080;7.634;2023-02-26T00:39:59;12.00;;;10.27;;
9942;SDS011;5010;45.080;7.634;2023-02-26T00:42:39;12.45;;;9.85;;
9942;SDS011;5010;45.080;7.634;2023-02-26T00:45:06;11.27;;;10.18;;
9942;SDS011;5010;45.080;7.634;2023-02-26T00:47:36;14.63;;;10.90;;
9942;SDS011;5010;45.080;7.634;2023-02-26T00:50:12;15.48;;;10.68;;
9942;SDS011;5010;45.080;7.634;2023-02-26T00:52:45;10.70;;;9.27;;
9942;SDS011;5010;45.080;7.634;2023-02-26T00:55:28;13.18;;;9.30;;
9942;SDS011;5010;45.080;7.634;2023-02-26T00:57:56;12.75;;;9.52;;
9942;SDS011;5010;45.080;7.634;2023-02-26T01:00:23;11.30;;;9.88;;
9942;SDS011;5010;45.080;7.634;2023-02-26T01:02:50;15.85;;;10.10;;
9942;SDS011;5010;45.080;7.634;2023-02-26T01:05:18;13.15;;;10.15;;
9942;SDS011;5010;45.080;7.634;2023-02-26T01:07:49;14.45;;;10.65;;
9942;SDS011;5010;45.080;7.634;2023-02-26T01:10:22;12.23;;;10.40;;
9942;SDS011;5010;45.080;7.634;2023-02-26T01:12:49;11.77;;;9.95;;
9942;SDS011;5010;45.080;7.634;2023-02-26T01:15:17;11.90;;;9.85;;
9942;SDS011;5010;45.080;7.634;2023-02-26T01:17:45;13.77;;;11.52;;
9942;SDS011;5010;45.080;7.634;2023-02-26T01:20:16;15.20;;;9.40;;
9942;SDS011;5010;45.080;7.634;2023-02-26T01:22:47;12.57;;;10.70;;
9942;SDS011;5010;45.080;7.634;2023-02-26T01:25:21;11.90;;;9.82;;
9942;SDS011;5010;45.080;7.634;2023-02-26T01:27:50;14.75;;;11.10;;
9942;SDS011;5010;45.080;7.634;2023-02-26T01:30:18;16.33;;;11.68;;
9942;SDS011;5010;45.080;7.634;2023-02-26T01:32:47;11.48;;;9.70;;
9942;SDS011;5010;45.080;7.634;2023-02-26T01:35:26;14.65;;;11.55;;
9942;SDS011;5010;45.080;7.634;2023-02-26T01:38:07;13.70;;;13.00;;
9942;SDS011;5010;45.080;7.634;2023-02-26T01:43:38;13.30;;;12.32;;
9942;SDS011;5010;45.080;7.634;2023-02-26T01:46:15;15.75;;;12.38;;
9942;SDS011;5010;45.080;7.634;2023-02-26T01:48:48;14.30;;;12.73;;
9942;SDS011;5010;45.080;7.634;2023-02-26T01:51:16;13.05;;;10.80;;
9942;SDS011;5010;45.080;7.634;2023-02-26T01:53:45;13.13;;;10.50;;
9942;SDS011;5010;45.080;7.634;2023-02-26T01:56:12;14.57;;;12.05;;
9942;SDS011;5010;45.080;7.634;2023-02-26T01:58:42;13.30;;;11.85;;
9942;SDS011;5010;45.080;7.634;2023-02-26T02:01:11;17.10;;;13.57;;
9942;SDS011;5010;45.080;7.634;2023-02-26T02:03:39;12.43;;;10.57;;
9942;SDS011;5010;45.080;7.634;2023-02-26T02:06:09;15.32;;;9.68;;
9942;SDS011;5010;45.080;7.634;2023-02-26T02:08:41;16.20;;;10.57;;
9942;SDS011;5010;45.080;7.634;2023-02-26T02:11:10;14.30;;;10.15;;
9942;SDS011;5010;45.080;7.634;2023-02-26T02:13:40;11.55;;;10.20;;
9942;SDS011;5010;45.080;7.634;2023-02-26T02:16:23;12.15;;;10.75;;
9942;SDS011;5010;45.080;7.634;2023-02-26T02:18:59;12.18;;;11.57;;
9942;SDS011;5010;45.080;7.634;2023-02-26T02:21:45;12.80;;;11.35;;
9942;SDS011;5010;45.080;7.634;2023-02-26T02:24:38;11.73;;;9.93;;
9942;SDS011;5010;45.080;7.634;2023-02-26T02:27:22;14.75;;;11.05;;
9942;SDS011;5010;45.080;7.634;2023-02-26T02:30:02;11.98;;;10.40;;
9942;SDS011;5010;45.080;7.634;2023-02-26T02:32:38;11.85;;;9.52;;
9942;SDS011;5010;45.080;7.634;2023-02-26T02:35:11;11.70;;;9.38;;
9942;SDS011;5010;45.080;7.634;2023-02-26T02:37:44;13.43;;;9.27;;
9942;SDS011;5010;45.080;7.634;2023-02-26T02:40:14;14.05;;;10.77;;
9942;SDS011;5010;45.080;7.634;2023-02-26T02:42:45;15.95;;;10.52;;
9942;SDS011;5010;45.080;7.634;2023-02-26T02:45:18;13.85;;;10.07;;
9942;SDS011;5010;45.080;7.634;2023-02-26T02:47:52;12.27;;;9.63;;
9942;SDS011;5010;45.080;7.634;2023-02-26T02:50:24;15.98;;;8.73;;
9942;SDS011;5010;45.080;7.634;2023-02-26T02:52:56;14.13;;;11.82;;
9942;SDS011;5010;45.080;7.634;2023-02-26T02:55:28;13.88;;;11.38;;
9942;SDS011;5010;45.080;7.634;2023-02-26T02:57:59;17.83;;;11.45;;
9942;SDS011;5010;45.080;7.634;2023-02-26T03:00:30;13.13;;;9.77;;
9942;SDS011;5010;45.080;7.634;2023-02-26T03:03:02;12.77;;;9.13;;
9942;SDS011;5010;45.080;7.634;2023-02-26T03:05:34;11.30;;;9.10;;
9942;SDS011;5010;45.080;7.634;2023-02-26T03:08:03;10.10;;;8.95;;
9942;SDS011;5010;45.080;7.634;2023-02-26T03:10:33;13.80;;;10.38;;
9942;SDS011;5010;45.080;7.634;2023-02-26T03:13:00;13.45;;;12.75;;
9942;SDS011;5010;45.080;7.634;2023-02-26T03:15:31;10.90;;;10.27;;
9942;SDS011;5010;45.080;7.634;2023-02-26T03:18:05;14.18;;;11.38;;
9942;SDS011;5010;45.080;7.634;2023-02-26T03:20:45;13.25;;;9.98;;
9942;SDS011;5010;45.080;7.634;2023-02-26T03:23:20;13.60;;;11.05;;
9942;SDS011;5010;45.080;7.634;2023-02-26T03:25:52;12.15;;;10.15;;
9942;SDS011;5010;45.080;7.634;2023-02-26T03:28:24;13.95;;;11.32;;
9942;SDS011;5010;45.080;7.634;2023-02-26T03:30:56;12.00;;;9.65;;
9942;SDS011;5010;45.080;7.634;2023-02-26T03:33:30;10.70;;;8.60;;
9942;SDS011;5010;45.080;7.634;2023-02-26T03:36:05;13.18;;;9.52;;
9942;SDS011;5010;45.080;7.634;2023-02-26T03:38:39;15.70;;;10.38;;
9942;SDS011;5010;45.080;7.634;2023-02-26T03:41:12;12.68;;;9.88;;
9942;SDS011;5010;45.080;7.634;2023-02-26T03:43:44;13.20;;;10.48;;
9942;SDS011;5010;45.080;7.634;2023-02-26T03:46:14;15.07;;;11.00;;
9942;SDS011;5010;45.080;7.634;2023-02-26T03:48:45;14.15;;;12.73;;
9942;SDS011;5010;45.080;7.634;2023-02-26T03:51:16;13.77;;;10.30;;
9942;SDS011;5010;45.080;7.634;2023-02-26T03:53:46;12.88;;;9.85;;
9942;SDS011;5010;45.080;7.634;2023-02-26T03:56:17;14.32;;;10.45;;
9942;SDS011;5010;45.080;7.634;2023-02-26T03:58:46;13.77;;;10.15;;
9942;SDS011;5010;45.080;7.634;2023-02-26T04:01:14;11.75;;;9.40;;
9942;SDS011;5010;45.080;7.634;2023-02-26T04:03:46;10.95;;;9.57;;
9942;SDS011;5010;45.080;7.634;2023-02-26T04:06:19;14.48;;;11.32;;
9942;SDS011;5010;45.080;7.634;2023-02-26T04:08:46;14.15;;;11.32;;
9942;SDS011;5010;45.080;7.634;2023-02-26T04:11:14;11.40;;;10.48;;
9942;SDS011;5010;45.080;7.634;2023-02-26T04:13:42;12.25;;;11.60;;
9942;SDS011;5010;45.080;7.634;2023-02-26T04:16:09;14.27;;;10.50;;
9942;SDS011;5010;45.080;7.634;2023-02-26T04:18:36;12.13;;;10.20;;
9942;SDS011;5010;45.080;7.634;2023-02-26T04:21:06;13.07;;;12.40;;
9942;SDS011;5010;45.080;7.634;2023-02-26T04:23:35;11.00;;;10.40;;
9942;SDS011;5010;45.080;7.634;2023-02-26T04:26:02;11.02;;;9.80;;
9942;SDS011;5010;45.080;7.634;2023-02-26T04:28:29;13.25;;;10.32;;
9942;SDS011;5010;45.080;7.634;2023-02-26T04:30:56;13.80;;;10.20;;
9942;SDS011;5010;45.080;7.634;2023-02-26T04:33:23;13.38;;;10.05;;
9942;SDS011;5010;45.080;7.634;2023-02-26T04:35:50;11.63;;;9.88;;
9942;SDS011;5010;45.080;7.634;2023-02-26T04:38:19;13.70;;;10.10;;
9942;SDS011;5010;45.080;7.634;2023-02-26T04:40:46;14.52;;;11.32;;
9942;SDS011;5010;45.080;7.634;2023-02-26T04:43:14;13.20;;;10.77;;
9942;SDS011;5010;45.080;7.634;2023-02-26T04:45:41;11.43;;;9.60;;
9942;SDS011;5010;45.080;7.634;2023-02-26T04:48:10;9.13;;;8.15;;
9942;SDS011;5010;45.080;7.634;2023-02-26T04:50:37;16.40;;;8.80;;
9942;SDS011;5010;45.080;7.634;2023-02-26T04:53:04;11.75;;;9.20;;
9942;SDS011;5010;45.080;7.634;2023-02-26T04:55:32;10.63;;;8.68;;
9942;SDS011;5010;45.080;7.634;2023-02-26T04:57:59;12.82;;;9.27;;
9942;SDS011;5010;45.080;7.634;2023-02-26T05:00:26;10.73;;;9.52;;
9942;SDS011;5010;45.080;7.634;2023-02-26T05:02:53;11.60;;;10.43;;
9942;SDS011;5010;45.080;7.634;2023-02-26T05:05:20;11.65;;;11.02;;
9942;SDS011;5010;45.080;7.634;2023-02-26T05:07:47;12.38;;;9.88;;
9942;SDS011;5010;45.080;7.634;2023-02-26T05:10:14;12.95;;;10.60;;
9942;SDS011;5010;45.080;7.634;2023-02-26T05:12:42;12.85;;;9.35;;
9942;SDS011;5010;45.080;7.634;2023-02-26T05:15:09;13.73;;;9.68;;
9942;SDS011;5010;45.080;7.634;2023-02-26T05:17:36;13.30;;;10.05;;
9942;SDS011;5010;45.080;7.634;2023-02-26T05:20:04;12.18;;;9.63;;
9942;SDS011;5010;45.080;7.634;2023-02-26T05:22:34;10.52;;;8.23;;
9942;SDS011;5010;45.080;7.634;2023-02-26T05:25:01;10.30;;;9.02;;
9942;SDS011;5010;45.080;7.634;2023-02-26T05:27:29;12.02;;;9.43;;
9942;SDS011;5010;45.080;7.634;2023-02-26T05:29:57;14.13;;;9.80;;
9942;SDS011;5010;45.080;7.634;2023-02-26T05:32:24;14.35;;;9.65;;
9942;SDS011;5010;45.080;7.634;2023-02-26T05:34:51;13.35;;;11.82;;
9942;SDS011;5010;45.080;7.634;2023-02-26T05:37:17;15.05;;;10.20;;
9942;SDS011;5010;45.080;7.634;2023-02-26T05:39:44;11.40;;;9.27;;
9942;SDS011;5010;45.080;7.634;2023-02-26T05:42:11;12.63;;;11.70;;
9942;SDS011;5010;45.080;7.634;2023-02-26T05:44:38;12.82;;;11.73;;
9942;SDS011;5010;45.080;7.634;2023-02-26T05:47:06;13.15;;;10.73;;
9942;SDS011;5010;45.080;7.634;2023-02-26T05:49:33;12.63;;;10.35;;
9942;SDS011;5010;45.080;7.634;2023-02-26T05:52:00;13.98;;;12.50;;
9942;SDS011;5010;45.080;7.634;2023-02-26T05:54:27;12.52;;;10.13;;
9942;SDS011;5010;45.080;7.634;2023-02-26T05:56:53;12.75;;;9.13;;
9942;SDS011;5010;45.080;7.634;2023-02-26T05:59:21;12.95;;;12.25;;
9942;SDS011;5010;45.080;7.634;2023-02-26T06:01:48;11.98;;;8.98;;
9942;SDS011;5010;45.080;7.634;2023-02-26T06:04:16;13.52;;;10.63;;
9942;SDS011;5010;45.080;7.634;2023-02-26T06:06:43;10.70;;;9.00;;
9942;SDS011;5010;45.080;7.634;2023-02-26T06:09:10;13.18;;;9.10;;
9942;SDS011;5010;45.080;7.634;2023-02-26T06:11:37;9.93;;;8.90;;
9942;SDS011;5010;45.080;7.634;2023-02-26T06:14:04;10.98;;;8.27;;
9942;SDS011;5010;45.080;7.634;2023-02-26T06:16:31;10.77;;;10.18;;
9942;SDS011;5010;45.080;7.634;2023-02-26T06:18:59;12.93;;;9.13;;
9942;SDS011;5010;45.080;7.634;2023-02-26T06:21:28;13.23;;;11.38;;
9942;SDS011;5010;45.080;7.634;2023-02-26T06:23:55;12.93;;;9.13;;
9942;SDS011;5010;45.080;7.634;2023-02-26T06:26:22;12.68;;;9.93;;
9942;SDS011;5010;45.080;7.634;2023-02-26T06:28:48;12.18;;;8.70;;
9942;SDS011;5010;45.080;7.634;2023-02-26T06:31:15;13.73;;;10.95;;
9942;SDS011;5010;45.080;7.634;2023-02-26T06:33:42;13.15;;;9.80;;
9942;SDS011;5010;45.080;7.634;2023-02-26T06:36:09;14.40;;;10.88;;
9942;SDS011;5010;45.080;7.634;2023-02-26T06:38:40;10.93;;;8.02;;
9942;SDS011;5010;45.080;7.634;2023-02-26T06:41:09;11.95;;;9.50;;
9942;SDS011;5010;45.080;7.634;2023-02-26T06:43:36;12.30;;;8.45;;
9942;SDS011;5010;45.080;7.634;2023-02-26T06:46:03;12.88;;;10.63;;
9942;SDS011;5010;45.080;7.634;2023-02-26T06:48:30;10.93;;;8.32;;
9942;SDS011;5010;45.080;7.634;2023-02-26T06:50:57;12.02;;;9.18;;
9942;SDS011;5010;45.080;7.634;2023-02-26T06:53:24;12.32;;;9.50;;
9942;SDS011;5010;45.080;7.634;2023-02-26T06:55:52;12.85;;;10.10;;
9942;SDS011;5010;45.080;7.634;2023-02-26T06:58:19;10.68;;;9.20;;
9942;SDS011;5010;45.080;7.634;2023-02-26T07:00:48;15.20;;;10.38;;
9942;SDS011;5010;45.080;7.634;2023-02-26T07:03:15;10.40;;;9.20;;
9942;SDS011;5010;45.080;7.634;2023-02-26T07:05:43;9.48;;;7.50;;
9942;SDS011;5010;45.080;7.634;2023-02-26T07:08:10;10.43;;;8.75;;
9942;SDS011;5010;45.080;7.634;2023-02-26T07:10:38;12.20;;;9.32;;
9942;SDS011;5010;45.080;7.634;2023-02-26T07:13:08;9.70;;;8.48;;
9942;SDS011;5010;45.080;7.634;2023-02-26T07:15:35;11.40;;;8.48;;
9942;SDS011;5010;45.080;7.634;2023-02-26T07:18:01;11.55;;;9.27;;
9942;SDS011;5010;45.080;7.634;2023-02-26T07:20:28;10.63;;;8.40;;
9942;SDS011;5010;45.080;7.634;2023-02-26T07:22:58;10.27;;;7.97;;
9942;SDS011;5010;45.080;7.634;2023-02-26T07:25:30;9.73;;;9.23;;
9942;SDS011;5010;45.080;7.634;2023-02-26T07:27:57;11.68;;;8.75;;
9942;SDS011;5010;45.080;7.634;2023-02-26T07:30:26;12.15;;;9.55;;
9942;SDS011;5010;45.080;7.634;2023-02-26T07:32:53;10.77;;;8.68;;
9942;SDS011;5010;45.080;7.634;2023-02-26T07:35:20;9.65;;;7.75;;
9942;SDS011;5010;45.080;7.634;2023-02-26T07:37:47;9.30;;;8.77;;
9942;SDS011;5010;45.080;7.634;2023-02-26T07:40:14;10.15;;;8.70;;
9942;SDS011;5010;45.080;7.634;2023-02-26T07:42:41;10.10;;;9.18;;
9942;SDS011;5010;45.080;7.634;2023-02-26T07:45:08;9.13;;;8.63;;
9942;SDS011;5010;45.080;7.634;2023-02-26T07:47:37;10.88;;;8.95;;
9942;SDS011;5010;45.080;7.634;2023-02-26T07:50:04;11.82;;;8.52;;
9942;SDS011;5010;45.080;7.634;2023-02-26T07:52:31;9.85;;;7.70;;
9942;SDS011;5010;45.080;7.634;2023-02-26T07:54:58;12.95;;;9.02;;
9942;SDS011;5010;45.080;7.634;2023-02-26T07:57:25;10.85;;;9.15;;
9942;SDS011;5010;45.080;7.634;2023-02-26T07:59:52;12.63;;;10.07;;
9942;SDS011;5010;45.080;7.634;2023-02-26T08:02:18;11.60;;;9.57;;
9942;SDS011;5010;45.080;7.634;2023-02-26T08:04:48;12.00;;;10.07;;
9942;SDS011;5010;45.080;7.634;2023-02-26T08:07:15;10.43;;;9.80;;
9942;SDS011;5010;45.080;7.634;2023-02-26T08:09:42;11.48;;;10.25;;
9942;SDS011;5010;45.080;7.634;2023-02-26T08:12:09;11.95;;;8.93;;
9942;SDS011;5010;45.080;7.634;2023-02-26T08:14:36;13.80;;;9.25;;
9942;SDS011;5010;45.080;7.634;2023-02-26T08:17:05;8.57;;;7.60;;
9942;SDS011;5010;45.080;7.634;2023-02-26T08:19:32;10.00;;;8.60;;
9942;SDS011;5010;45.080;7.634;2023-02-26T08:22:00;10.55;;;7.88;;
9942;SDS011;5010;45.080;7.634;2023-02-26T08:24:27;11.00;;;7.80;;
9942;SDS011;5010;45.080;7.634;2023-02-26T08:26:54;10.98;;;9.00;;
9942;SDS011;5010;45.080;7.634;2023-02-26T08:29:21;11.93;;;7.68;;
9942;SDS011;5010;45.080;7.634;2023-02-26T08:31:49;8.60;;;6.75;;
9942;SDS011;5010;45.080;7.634;2023-02-26T08:34:16;8.55;;;7.97;;
9942;SDS011;5010;45.080;7.634;2023-02-26T08:36:43;7.70;;;6.15;;
9942;SDS011;5010;45.080;7.634;2023-02-26T08:39:11;9.63;;;6.20;;
9942;SDS011;5010;45.080;7.634;2023-02-26T08:41:38;7.93;;;6.30;;
9942;SDS011;5010;45.080;7.634;2023-02-26T08:44:05;7.47;;;6.50;;
9942;SDS011;5010;45.080;7.634;2023-02-26T08:46:32;10.55;;;6.50;;
9942;SDS011;5010;45.080;7.634;2023-02-26T08:48:59;7.70;;;5.35;;
9942;SDS011;5010;45.080;7.634;2023-02-26T08:51:26;8.35;;;6.72;;
9942;SDS011;5010;45.080;7.634;2023-02-26T08:53:53;6.95;;;5.80;;
9942;SDS011;5010;45.080;7.634;2023-02-26T08:56:22;8.55;;;5.63;;
9942;SDS011;5010;45.080;7.634;2023-02-26T08:58:49;8.35;;;6.28;;
9942;SDS011;5010;45.080;7.634;2023-02-26T09:01:16;8.90;;;5.00;;
9942;SDS011;5010;45.080;7.634;2023-02-26T09:03:43;8.40;;;6.70;;
9942;SDS011;5010;45.080;7.634;2023-02-26T09:06:09;9.65;;;6.80;;
9942;SDS011;5010;45.080;7.634;2023-02-26T09:08:36;7.85;;;5.90;;
9942;SDS011;5010;45.080;7.634;2023-02-26T09:11:03;8.63;;;6.18;;
9942;SDS011;5010;45.080;7.634;2023-02-26T09:13:32;6.25;;;5.18;;
9942;SDS011;5010;45.080;7.634;2023-02-26T09:15:58;10.90;;;6.90;;
9942;SDS011;5010;45.080;7.634;2023-02-26T09:18:25;8.30;;;5.85;;
9942;SDS011;5010;45.080;7.634;2023-02-26T09:20:52;7.18;;;5.43;;
9942;SDS011;5010;45.080;7.634;2023-02-26T09:23:19;8.30;;;6.00;;
9942;SDS011;5010;45.080;7.634;2023-02-26T09:25:50;8.00;;;5.93;;
9942;SDS011;5010;45.080;7.634;2023-02-26T09:28:18;7.72;;;5.65;;
9942;SDS011;5010;45.080;7.634;2023-02-26T09:30:49;12.80;;;5.40;;
9942;SDS011;5010;45.080;7.634;2023-02-26T09:33:16;6.93;;;4.80;;
9942;SDS011;5010;45.080;7.634;2023-02-26T09:35:43;8.73;;;5.22;;
9942;SDS011;5010;45.080;7.634;2023-02-26T09:38:13;6.13;;;4.68;;
9942;SDS011;5010;45.080;7.634;2023-02-26T09:40:41;7.15;;;4.22;;
9942;SDS011;5010;45.080;7.634;2023-02-26T09:43:17;4.82;;;3.60;;
9942;SDS011;5010;45.080;7.634;2023-02-26T09:46:23;6.15;;;3.47;;
9942;SDS011;5010;45.080;7.634;2023-02-26T09:49:06;7.00;;;4.00;;
9942;SDS011;5010;45.080;7.634;2023-02-26T09:51:42;4.90;;;3.05;;
9942;SDS011;5010;45.080;7.634;2023-02-26T09:54:13;6.15;;;3.10;;
9942;SDS011;5010;45.080;7.634;2023-02-26T09:56:43;6.15;;;3.00;;
9942;SDS011;5010;45.080;7.634;2023-02-26T09:59:10;4.90;;;3.20;;
9942;SDS011;5010;45.080;7.634;2023-02-26T10:01:40;5.45;;;3.80;;
9942;SDS011;5010;45.080;7.634;2023-02-26T10:04:16;6.90;;;3.75;;
9942;SDS011;5010;45.080;7.634;2023-02-26T10:06:52;5.00;;;3.30;;
9942;SDS011;5010;45.080;7.634;2023-02-26T10:09:32;5.18;;;3.67;;
9942;SDS011;5010;45.080;7.634;2023-02-26T10:12:12;4.75;;;3.25;;
9942;SDS011;5010;45.080;7.634;2023-02-26T10:14:43;4.20;;;2.85;;
9942;SDS011;5010;45.080;7.634;2023-02-26T10:17:17;6.95;;;3.03;;
9942;SDS011;5010;45.080;7.634;2023-02-26T10:19:48;6.03;;;3.50;;
9942;SDS011;5010;45.080;7.634;2023-02-26T10:22:21;5.53;;;3.20;;
9942;SDS011;5010;45.080;7.634;2023-02-26T10:24:51;5.00;;;3.15;;
9942;SDS011;5010;45.080;7.634;2023-02-26T10:27:26;6.32;;;3.50;;
9942;SDS011;5010;45.080;7.634;2023-02-26T10:30:04;6.68;;;4.35;;
9942;SDS011;5010;45.080;7.634;2023-02-26T10:32:36;7.70;;;5.13;;
9942;SDS011;5010;45.080;7.634;2023-02-26T10:35:08;6.07;;;3.60;;
9942;SDS011;5010;45.080;7.634;2023-02-26T10:37:40;6.80;;;3.70;;
9942;SDS011;5010;45.080;7.634;2023-02-26T10:40:18;5.03;;;3.60;;
9942;SDS011;5010;45.080;7.634;2023-02-26T10:42:49;5.38;;;3.42;;
9942;SDS011;5010;45.080;7.634;2023-02-26T10:45:26;4.93;;;3.38;;
9942;SDS011;5010;45.080;7.634;2023-02-26T10:48:04;8.43;;;3.80;;
9942;SDS011;5010;45.080;7.634;2023-02-26T10:50:43;7.43;;;4.47;;
9942;SDS011;5010;45.080;7.634;2023-02-26T10:53:15;5.95;;;3.30;;
9942;SDS011;5010;45.080;7.634;2023-02-26T10:55:43;5.47;;;2.88;;
9942;SDS011;5010;45.080;7.634;2023-02-26T10:58:13;4.15;;;2.42;;
9942;SDS011;5010;45.080;7.634;2023-02-26T11:00:43;6.88;;;3.67;;
9942;SDS011;5010;45.080;7.634;2023-02-26T11:03:14;6.68;;;3.78;;
9942;SDS011;5010;45.080;7.634;2023-02-26T11:05:43;4.40;;;2.63;;
9942;SDS011;5010;45.080;7.634;2023-02-26T11:08:12;5.85;;;3.03;;
9942;SDS011;5010;45.080;7.634;2023-02-26T11:10:44;4.80;;;2.92;;
9942;SDS011;5010;45.080;7.634;2023-02-26T11:13:15;5.55;;;3.35;;
9942;SDS011;5010;45.080;7.634;2023-02-26T11:15:42;4.40;;;3.05;;
9942;SDS011;5010;45.080;7.634;2023-02-26T11:18:16;4.65;;;2.80;;
9942;SDS011;5010;45.080;7.634;2023-02-26T11:20:46;4.90;;;3.40;;
9942;SDS011;5010;45.080;7.634;2023-02-26T11:23:15;5.10;;;3.20;;
9942;SDS011;5010;45.080;7.634;2023-02-26T11:25:45;6.20;;;3.83;;
9942;SDS011;5010;45.080;7.634;2023-02-26T11:28:19;4.90;;;3.13;;
9942;SDS011;5010;45.080;7.634;2023-02-26T11:30:47;5.25;;;2.90;;
9942;SDS011;5010;45.080;7.634;2023-02-26T11:33:20;5.57;;;3.40;;
9942;SDS011;5010;45.080;7.634;2023-02-26T11:35:49;5.85;;;2.83;;
9942;SDS011;5010;45.080;7.634;2023-02-26T11:38:18;4.93;;;4.10;;
9942;SDS011;5010;45.080;7.634;2023-02-26T11:40:48;4.55;;;2.97;;
9942;SDS011;5010;45.080;7.634;2023-02-26T11:43:20;5.70;;;3.50;;
9942;SDS011;5010;45.080;7.634;2023-02-26T11:45:51;5.47;;;4.00;;
9942;SDS011;5010;45.080;7.634;2023-02-26T11:48:22;5.43;;;3.83;;
9942;SDS011;5010;45.080;7.634;2023-02-26T11:50:52;4.70;;;3.65;;
9942;SDS011;5010;45.080;7.634;2023-02-26T11:53:23;4.30;;;2.70;;
9942;SDS011;5010;45.080;7.634;2023-02-26T11:55:52;5.25;;;3.20;;
9942;SDS011;5010;45.080;7.634;2023-02-26T11:58:27;5.32;;;3.25;;
9942;SDS011;5010;45.080;7.634;2023-02-26T12:00:56;5.68;;;4.05;;
9942;SDS011;5010;45.080;7.634;2023-02-26T12:03:27;4.30;;;3.20;;
9942;SDS011;5010;45.080;7.634;2023-02-26T12:05:57;5.68;;;3.50;;
9942;SDS011;5010;45.080;7.634;2023-02-26T12:08:27;5.47;;;3.70;;
9942;SDS011;5010;45.080;7.634;2023-02-26T12:11:15;4.60;;;3.70;;
9942;SDS011;5010;45.080;7.634;2023-02-26T12:14:20;5.15;;;3.40;;
9942;SDS011;5010;45.080;7.634;2023-02-26T12:17:06;5.20;;;3.80;;
9942;SDS011;5010;45.080;7.634;2023-02-26T12:19:47;6.38;;;4.03;;
9942;SDS011;5010;45.080;7.634;2023-02-26T12:28:21;6.90;;;4.43;;
9942;SDS011;5010;45.080;7.634;2023-02-26T12:31:08;4.55;;;4.20;;
9942;SDS011;5010;45.080;7.634;2023-02-26T12:34:05;5.22;;;4.00;;
9942;SDS011;5010;45.080;7.634;2023-02-26T12:36:48;4.82;;;3.20;;
9942;SDS011;5010;45.080;7.634;2023-02-26T12:39:30;4.55;;;3.30;;
9942;SDS011;5010;45.080;7.634;2023-02-26T12:42:09;4.35;;;3.50;;
9942;SDS011;5010;45.080;7.634;2023-02-26T12:44:52;4.35;;;3.50;;
9942;SDS011;5010;45.080;7.634;2023-02-26T12:47:28;6.25;;;4.38;;
9942;SDS011;5010;45.080;7.634;2023-02-26T12:50:11;5.07;;;4.05;;
9942;SDS011;5010;45.080;7.634;2023-02-26T12:52:52;5.60;;;3.45;;
9942;SDS011;5010;45.080;7.634;2023-02-26T12:55:43;5.25;;;4.03;;
9942;SDS011;5010;45.080;7.634;2023-02-26T12:58:29;4.93;;;3.33;;
9942;SDS011;5010;45.080;7.634;2023-02-26T13:04:18;4.80;;;3.50;;
9942;SDS011;5010;45.080;7.634;2023-02-26T13:07:19;5.22;;;3.35;;
9942;SDS011;5010;45.080;7.634;2023-02-26T13:10:02;4.55;;;3.83;;
9942;SDS011;5010;45.080;7.634;2023-02-26T13:12:38;4.75;;;2.50;;
9942;SDS011;5010;45.080;7.634;2023-02-26T13:15:15;4.72;;;2.55;;
9942;SDS011;5010;45.080;7.634;2023-02-26T13:17:52;4.22;;;2.55;;
9942;SDS011;5010;45.080;7.634;2023-02-26T13:20:25;5.28;;;2.80;;
9942;SDS011;5010;45.080;7.634;2023-02-26T13:22:54;4.72;;;3.20;;
9942;SDS011;5010;45.080;7.634;2023-02-26T13:25:27;4.65;;;3.25;;
9942;SDS011;5010;45.080;7.634;2023-02-26T13:27:58;4.80;;;3.63;;
9942;SDS011;5010;45.080;7.634;2023-02-26T13:30:30;5.88;;;3.70;;
9942;SDS011;5010;45.080;7.634;2023-02-26T13:33:00;5.65;;;3.50;;
9942;SDS011;5010;45.080;7.634;2023-02-26T13:35:28;4.95;;;3.45;;
9942;SDS011;5010;45.080;7.634;2023-02-26T13:37:59;5.07;;;3.95;;
9942;SDS011;5010;45.080;7.634;2023-02-26T13:40:40;5.13;;;4.22;;
9942;SDS011;5010;45.080;7.634;2023-02-26T13:43:15;4.50;;;3.10;;
9942;SDS011;5010;45.080;7.634;2023-02-26T13:45:52;4.88;;;3.45;;
9942;SDS011;5010;45.080;7.634;2023-02-26T13:48:29;5.97;;;3.80;;
9942;SDS011;5010;45.080;7.634;2023-02-26T13:51:07;6.55;;;3.70;;
9942;SDS011;5010;45.080;7.634;2023-02-26T13:53:50;4.95;;;3.05;;
9942;SDS011;5010;45.080;7.634;2023-02-26T13:56:22;4.88;;;3.53;;
9942;SDS011;5010;45.080;7.634;2023-02-26T13:59:29;4.70;;;3.95;;
9942;SDS011;5010;45.080;7.634;2023-02-26T14:02:02;5.32;;;3.10;;
9942;SDS011;5010;45.080;7.634;2023-02-26T14:04:49;5.40;;;3.33;;
9942;SDS011;5010;45.080;7.634;2023-02-26T14:07:44;5.80;;;4.00;;
9942;SDS011;5010;45.080;7.634;2023-02-26T14:10:14;9.75;;;3.85;;
9942;SDS011;5010;45.080;7.634;2023-02-26T14:12:45;5.20;;;3.50;;
9942;SDS011;5010;45.080;7.634;2023-02-26T14:15:28;4.82;;;3.00;;
9942;SDS011;5010;45.080;7.634;2023-02-26T14:18:12;5.43;;;3.20;;
9942;SDS011;5010;45.080;7.634;2023-02-26T14:20:46;9.50;;;2.97;;
9942;SDS011;5010;45.080;7.634;2023-02-26T14:26:08;5.75;;;3.45;;
9942;SDS011;5010;45.080;7.634;2023-02-26T14:28:42;4.80;;;3.22;;
9942;SDS011;5010;45.080;7.634;2023-02-26T14:31:15;4.45;;;2.40;;
9942;SDS011;5010;45.080;7.634;2023-02-26T14:33:45;6.25;;;3.10;;
9942;SDS011;5010;45.080;7.634;2023-02-26T14:36:25;4.65;;;2.83;;
9942;SDS011;5010;45.080;7.634;2023-02-26T14:39:04;4.88;;;3.95;;
9942;SDS011;5010;45.080;7.634;2023-02-26T14:41:35;4.95;;;3.83;;
9942;SDS011;5010;45.080;7.634;2023-02-26T14:44:09;6.72;;;3.63;;
9942;SDS011;5010;45.080;7.634;2023-02-26T14:46:40;7.45;;;3.75;;
9942;SDS011;5010;45.080;7.634;2023-02-26T14:49:11;4.80;;;3.20;;
9942;SDS011;5010;45.080;7.634;2023-02-26T14:51:44;4.63;;;2.78;;
9942;SDS011;5010;45.080;7.634;2023-02-26T14:54:24;4.85;;;3.03;;
9942;SDS011;5010;45.080;7.634;2023-02-26T14:57:04;4.72;;;2.78;;
9942;SDS011;5010;45.080;7.634;2023-02-26T14:59:45;4.70;;;3.10;;
9942;SDS011;5010;45.080;7.634;2023-02-26T15:02:37;5.75;;;2.80;;
9942;SDS011;5010;45.080;7.634;2023-02-26T15:05:24;7.28;;;3.78;;
9942;SDS011;5010;45.080;7.634;2023-02-26T15:08:02;5.45;;;3.50;;
9942;SDS011;5010;45.080;7.634;2023-02-26T15:11:04;5.20;;;3.22;;
9942;SDS011;5010;45.080;7.634;2023-02-26T15:16:48;6.05;;;3.60;;
9942;SDS011;5010;45.080;7.634;2023-02-26T15:19:28;4.90;;;3.30;;
9942;SDS011;5010;45.080;7.634;2023-02-26T15:22:12;4.55;;;3.40;;
9942;SDS011;5010;45.080;7.634;2023-02-26T15:24:48;4.03;;;2.85;;
9942;SDS011;5010;45.080;7.634;2023-02-26T15:27:16;5.13;;;3.72;;
9942;SDS011;5010;45.080;7.634;2023-02-26T15:29:44;4.97;;;3.58;;
9942;SDS011;5010;45.080;7.634;2023-02-26T15:32:16;5.78;;;3.55;;
9942;SDS011;5010;45.080;7.634;2023-02-26T15:34:54;4.88;;;3.95;;
9942;SDS011;5010;45.080;7.634;2023-02-26T15:37:24;5.30;;;3.50;;
9942;SDS011;5010;45.080;7.634;2023-02-26T15:39:57;5.35;;;3.80;;
9942;SDS011;5010;45.080;7.634;2023-02-26T15:42:29;4.70;;;3.75;;
9942;SDS011;5010;45.080;7.634;2023-02-26T15:45:01;5.03;;;3.25;;
9942;SDS011;5010;45.080;7.634;2023-02-26T15:47:32;5.15;;;3.42;;
9942;SDS011;5010;45.080;7.634;2023-02-26T15:49:59;4.70;;;3.45;;
9942;SDS011;5010;45.080;7.634;2023-02-26T15:52:26;4.50;;;3.13;;